Home PIREPS Pireps

Flight SAB2712

  • Submitted By: Carl Hermans
  • Departure Airport: airoport Geneve-Cointrin (LSGG)
  • Arrival Airport: Bruxelles National (EBBR)
  • Aircraft: B737-500 (OO-SAB)
  • Flight Time: 01.10
  • Date Submitted: 06/04/2016
  • Status: Accepted
Flight Details
Gross Revenue:
(129 load / € 0.00 per unit
€ 0.00
Fuel Cost:
(12214 fuel used @ 5.1 / unit)
€ 62,291.40

Additional Log Information:

View Log

Aircraft Used in flight is SSG B748-Inter_V1.3 Lufthansa
20:22Flaps 4 Selected at 1390ft and 0kts
20:22 Engine 1 Started
20:22 Engine 2 Started
20:22 Engine 3 Started
20:22 Engine 4 Started
20:22 Strobe Lights ON at 1390 AGL
20:22 Navigation Lights ON at 1390 AGL
20:22 Taxi Lights ON at 1390 AGL
20:22 Beacon Lights ON at 1390 AGL
20:22 Recovered from Stall
20:22 Recovered from Overspeed
20:30 Brakes are On
20:30 Brakes are Released
20:30 Brakes are On
20:31 Taxi Lights OFF at 1420 AGL
20:31 Brakes are Released
20:32 You Took off @ 166 Knots and Flaps at Position 4
Departure Weather
LSGG 061820Z VRB02KT 9999 FEW050 13/07 Q1013 NOSIGrn
20:32 Landing Gear Up @ 181 Knots and 1430 Feet
20:32Flaps 2 Selected at 3590ft and 234kts
20:32Flaps 1 Selected at 3770ft and 236kts
20:33Flaps Retracted at 3890ft and 238kts
20:34 Above FL100 you need to switch of the landing lights
20:36 You exceeded maximum bank angle
21:02 Spoilers Armed
21:10 Spoilers Disarmed
21:10Flaps 1 Selected at 13670ft and 230kts
21:10 Spoilers Armed
21:13 Below 10000 feet you are not allowed to go over 250 knots
21:13 Spoilers Disarmed
21:13Flaps 2 Selected at 9320ft and 232kts
21:13Flaps 4 Selected at 9230ft and 225kts
21:14 Spoilers Armed
21:22Flaps 5 Selected at 3080ft and 164kts
21:23 Landing Gear Down @ 155 Knots and 2990 Feet
21:24Flaps 6 Selected at 2820ft and 155kts
21:25Flaps 5 Selected at 2130ft and 146kts
21:25Flaps 6 Selected at 2130ft and 146kts
21:25Flaps 8 Selected at 2110ft and 146kts
21:28 Spoilers Disarmed
21:28 You Landed @ 136 Knots and with -50 Vertical Speed
Arrival Weather
EBBR 061850Z 24016KT 9999 FEW034 09/03 Q1007 TEMPO 25026G36KTrn
21:28 Brakes are On
21:28 Brakes are Released
21:28 Brakes are On
21:29 Brakes are Released
21:29Flaps 5 Selected at 160ft and 5kts
21:29Flaps Retracted at 160ft and 4kts
21:31 Taxi Lights ON at 160 AGL
21:31 Brakes are On
21:32 Brussels Bel-Track1.0.0.11

Route Map

Corporate About Us Our Team Vacancies Information Fleet Route Network Rules and Regulations Operations Flight Schedules Event Center Tours Partners IVAO Vatsim Acars dev FSCB

fb Users Online Belgium Roger Wijns, United Kingdom David Chenery,
4 Pilot(s) and 227 Guest(s) Online
CMS by phpVMS - Design by Crazycreatives.com - Copyright © 2018 - Brussels Airlines Virtual